createdAt,value
2024-01-28T00:00:09.361Z,95833.94
2024-01-28T00:02:38.633Z,95840.94
2024-01-28T00:05:05.898Z,95836.94
2024-01-28T00:07:32.649Z,95838.31
2024-01-28T00:09:59.378Z,95826.16
2024-01-28T00:12:26.171Z,95829.72
2024-01-28T00:14:52.878Z,95832.84
2024-01-28T00:17:19.611Z,95828.50
2024-01-28T00:19:46.561Z,95836.41
2024-01-28T00:22:13.720Z,95831.94
2024-01-28T00:24:40.498Z,95832.72
2024-01-28T00:27:07.266Z,95822.25
2024-01-28T00:29:34.011Z,95829.75
2024-01-28T00:32:00.810Z,95826.03
2024-01-28T00:34:27.798Z,95828.97
2024-01-28T00:36:55.077Z,95817.47
2024-01-28T00:39:22.582Z,95821.44
2024-01-28T00:41:49.472Z,95818.56
2024-01-28T00:44:16.258Z,95816.44
2024-01-28T00:46:42.981Z,95820.13
2024-01-28T00:49:09.979Z,95817.88
2024-01-28T00:51:36.741Z,95810.09
2024-01-28T00:54:03.725Z,95804.59
2024-01-28T00:56:30.433Z,95794.50
2024-01-28T00:58:57.228Z,95793.91
2024-01-28T01:01:24.182Z,95793.31
2024-01-28T01:03:51.013Z,95800.00
2024-01-28T01:06:17.999Z,95789.09
2024-01-28T01:08:44.892Z,95783.00
2024-01-28T01:11:11.669Z,95777.41
2024-01-28T01:13:38.408Z,95766.06
2024-01-28T01:16:05.556Z,95780.38
2024-01-28T01:18:32.348Z,95765.84
2024-01-28T01:20:59.105Z,95770.63
2024-01-28T01:23:26.173Z,95774.88
2024-01-28T01:25:53.047Z,95772.59
2024-01-28T01:28:19.961Z,95772.03
2024-01-28T01:30:46.968Z,95761.56
2024-01-28T01:33:13.942Z,95765.78
2024-01-28T01:35:40.788Z,95771.63
2024-01-28T01:38:07.541Z,95769.53
2024-01-28T01:40:34.277Z,95768.19
2024-01-28T01:43:01.307Z,95771.00
2024-01-28T01:45:28.085Z,95767.31
2024-01-28T01:47:55.193Z,95775.13
2024-01-28T01:50:22.176Z,95771.22
2024-01-28T01:52:49.092Z,95765.72
2024-01-28T01:55:16.345Z,95759.16
2024-01-28T01:57:44.050Z,95753.72
2024-01-28T02:00:16.196Z,95755.78
2024-01-28T02:02:47.476Z,95762.38
2024-01-28T02:05:14.713Z,95764.34
2024-01-28T02:07:41.576Z,95754.03
2024-01-28T02:10:08.864Z,95749.34
2024-01-28T02:12:35.666Z,95740.44
2024-01-28T02:15:05.025Z,95745.41
2024-01-28T02:17:31.975Z,95731.81
2024-01-28T02:19:59.698Z,95732.50
2024-01-28T02:22:26.606Z,95727.19
2024-01-28T02:24:53.372Z,95730.84
2024-01-28T02:27:20.276Z,95741.25
2024-01-28T02:29:47.034Z,95743.72
2024-01-28T02:32:17.738Z,95739.94
2024-01-28T02:34:45.250Z,95743.16
2024-01-28T02:37:12.410Z,95745.34
2024-01-28T02:39:40.149Z,95734.72
2024-01-28T02:42:07.889Z,95746.81
2024-01-28T02:44:34.646Z,95738.91
2024-01-28T02:47:04.254Z,95736.84
2024-01-28T02:49:31.084Z,95723.13
2024-01-28T02:51:57.957Z,95731.63
2024-01-28T02:54:24.869Z,95718.81
2024-01-28T02:56:53.425Z,95736.19
2024-01-28T02:59:20.273Z,95732.84
2024-01-28T03:01:50.483Z,95729.19
2024-01-28T03:04:17.668Z,95723.91
2024-01-28T03:06:44.986Z,95723.91
2024-01-28T03:09:11.939Z,95736.84
2024-01-28T03:11:39.301Z,95736.50
2024-01-28T03:14:07.720Z,95734.44
2024-01-28T03:16:34.674Z,95722.03
2024-01-28T03:19:01.706Z,95732.13
2024-01-28T03:21:28.797Z,95726.03
2024-01-28T03:23:55.618Z,95719.16
2024-01-28T03:26:22.347Z,95727.56
2024-01-28T03:28:49.141Z,95727.88
2024-01-28T03:31:17.625Z,95733.41
2024-01-28T03:33:44.546Z,95729.13
2024-01-28T03:36:12.518Z,95719.44
2024-01-28T03:38:40.661Z,95718.81
2024-01-28T03:41:07.453Z,95719.03
2024-01-28T03:43:34.172Z,95721.16
2024-01-28T03:46:01.006Z,95727.06
2024-01-28T03:48:28.028Z,95722.81
2024-01-28T03:50:54.898Z,95726.00
2024-01-28T03:53:21.587Z,95728.38
2024-01-28T03:55:48.447Z,95725.88
2024-01-28T03:58:15.158Z,95728.16
2024-01-28T04:00:42.001Z,95704.63
2024-01-28T04:03:09.935Z,95721.16
2024-01-28T04:05:36.790Z,95713.69
2024-01-28T04:08:03.643Z,95718.78
2024-01-28T04:10:30.357Z,95719.97
2024-01-28T04:12:57.482Z,95717.72
2024-01-28T04:15:24.232Z,95713.09
2024-01-28T04:17:51.031Z,95718.34
2024-01-28T04:20:18.103Z,95713.69
2024-01-28T04:22:45.007Z,95704.19
2024-01-28T04:25:13.580Z,95701.78
2024-01-28T04:27:40.660Z,95701.41
2024-01-28T04:30:07.883Z,95701.63
2024-01-28T04:32:34.641Z,95706.28
2024-01-28T04:35:01.500Z,95705.47
2024-01-28T04:37:28.614Z,95706.81
2024-01-28T04:39:55.399Z,95711.47
2024-01-28T04:42:24.112Z,95714.44
2024-01-28T04:44:51.926Z,95704.97
2024-01-28T04:47:19.009Z,95720.47
2024-01-28T04:49:46.407Z,95726.16
2024-01-28T04:52:14.237Z,95715.25
2024-01-28T04:54:41.315Z,95714.44
2024-01-28T04:57:08.190Z,95714.41
2024-01-28T04:59:35.095Z,95721.69
2024-01-28T05:02:01.864Z,95726.00
2024-01-28T05:04:28.765Z,95724.41
2024-01-28T05:06:55.781Z,95713.59
2024-01-28T05:09:23.305Z,95715.56
2024-01-28T05:11:50.766Z,95724.81
2024-01-28T05:14:17.711Z,95724.81
2024-01-28T05:16:48.699Z,95715.88
2024-01-28T05:19:16.394Z,95713.47
2024-01-28T05:21:43.345Z,95729.75
2024-01-28T05:24:10.212Z,95725.47
2024-01-28T05:26:38.606Z,95726.09
2024-01-28T05:29:07.055Z,95722.03
2024-01-28T05:31:34.376Z,95729.69
2024-01-28T05:34:02.834Z,95727.28
2024-01-28T05:36:30.407Z,95722.72
2024-01-28T05:38:57.277Z,95723.19
2024-01-28T05:41:24.072Z,95719.53
2024-01-28T05:43:50.768Z,95732.09
2024-01-28T05:46:17.489Z,95734.88
2024-01-28T05:48:44.371Z,95737.22
2024-01-28T05:51:11.358Z,95731.09
2024-01-28T05:53:38.173Z,95725.25
2024-01-28T05:56:05.355Z,95728.00
2024-01-28T05:58:32.091Z,95733.78
2024-01-28T06:01:03.441Z,95736.88
2024-01-28T06:03:30.301Z,95728.06
2024-01-28T06:05:57.070Z,95735.72
2024-01-28T06:08:24.422Z,95726.88
2024-01-28T06:10:51.248Z,95731.09
2024-01-28T06:13:18.131Z,95724.50
2024-01-28T06:15:44.962Z,95727.97
2024-01-28T06:18:11.796Z,95737.06
2024-01-28T06:20:38.987Z,95733.84
2024-01-28T06:23:05.766Z,95738.28
2024-01-28T06:25:32.492Z,95742.38
2024-01-28T06:27:59.281Z,95737.34
2024-01-28T06:30:29.046Z,95731.22
2024-01-28T06:32:56.425Z,95736.41
2024-01-28T06:35:23.213Z,95735.47
2024-01-28T06:37:49.968Z,95735.38
2024-01-28T06:40:16.927Z,95741.59
2024-01-28T06:42:43.820Z,95730.50
2024-01-28T06:45:10.773Z,95728.00
2024-01-28T06:47:37.794Z,95727.56
2024-01-28T06:50:05.419Z,95731.59
2024-01-28T06:52:33.044Z,95731.75
2024-01-28T06:54:59.906Z,95726.91
2024-01-28T06:57:26.721Z,95732.75
2024-01-28T06:59:53.466Z,95730.06
2024-01-28T07:02:20.256Z,95732.13
2024-01-28T07:04:47.767Z,95727.44
2024-01-28T07:07:14.609Z,95738.69
2024-01-28T07:09:41.471Z,95730.56
2024-01-28T07:12:10.211Z,95736.00
2024-01-28T07:14:37.025Z,95743.66
2024-01-28T07:17:03.930Z,95746.50
2024-01-28T07:19:30.734Z,95748.63
2024-01-28T07:21:57.726Z,95738.88
2024-01-28T07:24:24.491Z,95737.84
2024-01-28T07:26:51.298Z,95742.94
2024-01-28T07:29:17.988Z,95742.28
2024-01-28T07:31:44.730Z,95737.47
2024-01-28T07:34:11.621Z,95747.06
2024-01-28T07:36:39.294Z,95750.28
2024-01-28T07:39:08.326Z,95745.81
2024-01-28T07:41:37.478Z,95745.22
2024-01-28T07:44:04.713Z,95748.44
2024-01-28T07:46:31.426Z,95742.22
2024-01-28T07:48:58.373Z,95748.50
2024-01-28T07:51:25.262Z,95747.00
2024-01-28T07:53:52.544Z,95745.00
2024-01-28T07:56:19.383Z,95745.72
2024-01-28T07:58:46.113Z,95744.94
2024-01-28T08:01:12.868Z,95739.84
2024-01-28T08:03:39.645Z,95744.25
2024-01-28T08:06:08.812Z,95743.03
2024-01-28T08:08:35.634Z,95747.47
2024-01-28T08:11:02.970Z,95747.06
2024-01-28T08:13:29.756Z,95741.00
2024-01-28T08:16:02.867Z,95737.97
2024-01-28T08:18:29.863Z,95744.56
2024-01-28T08:20:57.484Z,95744.09
2024-01-28T08:23:24.400Z,95749.69
2024-01-28T08:25:51.251Z,95754.59
2024-01-28T08:28:18.272Z,95741.06
2024-01-28T08:30:46.170Z,95745.31
2024-01-28T08:33:13.397Z,95753.88
2024-01-28T08:35:42.664Z,95744.91
2024-01-28T08:38:09.717Z,95750.75
2024-01-28T08:40:36.450Z,95751.88
2024-01-28T08:43:05.750Z,95746.22
2024-01-28T08:45:33.136Z,95746.00
2024-01-28T08:48:01.103Z,95739.72
2024-01-28T08:50:27.908Z,95739.84
2024-01-28T08:52:54.627Z,95746.28
2024-01-28T08:55:21.420Z,95738.25
2024-01-28T08:57:48.290Z,95749.59
2024-01-28T09:00:15.992Z,95742.38
2024-01-28T09:02:42.769Z,95744.16
2024-01-28T09:05:11.588Z,95739.50
2024-01-28T09:07:38.740Z,95745.63
2024-01-28T09:10:05.857Z,95752.19
2024-01-28T09:12:32.642Z,95742.88
2024-01-28T09:14:59.545Z,95756.44
2024-01-28T09:17:26.269Z,95751.09
2024-01-28T09:19:52.985Z,95743.69
2024-01-28T09:22:19.774Z,95746.84
2024-01-28T09:24:46.667Z,95749.69
2024-01-28T09:27:13.577Z,95744.78
2024-01-28T09:29:40.421Z,95747.94
2024-01-28T09:32:07.534Z,95745.63
2024-01-28T09:34:34.733Z,95739.22
2024-01-28T09:37:01.584Z,95740.16
2024-01-28T09:39:29.611Z,95744.09
2024-01-28T09:42:19.657Z,95746.22
2024-01-28T09:44:46.809Z,95748.41
2024-01-28T09:47:13.774Z,95734.09
2024-01-28T09:49:41.508Z,95741.88
2024-01-28T09:52:12.766Z,95737.81
2024-01-28T09:54:40.641Z,95732.88
2024-01-28T09:57:08.681Z,95743.19
2024-01-28T09:59:36.912Z,95747.38
2024-01-28T10:02:05.595Z,95741.97
2024-01-28T10:04:33.364Z,95748.53
2024-01-28T10:07:01.295Z,95753.59
2024-01-28T10:09:29.298Z,95752.41
2024-01-28T10:12:00.669Z,95748.56
2024-01-28T10:14:28.381Z,95742.94
2024-01-28T10:16:57.928Z,95752.75
2024-01-28T10:19:24.980Z,95742.75
2024-01-28T10:21:52.526Z,95745.69
2024-01-28T10:24:19.568Z,95743.41
2024-01-28T10:26:46.508Z,95750.91
2024-01-28T10:29:14.745Z,95748.28
2024-01-28T10:31:42.045Z,95750.38
2024-01-28T10:34:10.577Z,95745.69
2024-01-28T10:36:41.132Z,95749.34
2024-01-28T10:39:15.187Z,95741.97
2024-01-28T10:41:45.060Z,95750.44
2024-01-28T10:44:14.478Z,95739.03
2024-01-28T10:46:43.130Z,95746.75
2024-01-28T10:49:11.797Z,95740.41
2024-01-28T10:51:41.164Z,95738.81
2024-01-28T10:54:09.337Z,95735.78
2024-01-28T10:56:39.845Z,95723.66
2024-01-28T10:59:06.774Z,95721.63
2024-01-28T11:01:35.439Z,95733.59
2024-01-28T11:04:06.144Z,95717.25
2024-01-28T11:06:33.584Z,95718.78
2024-01-28T11:09:01.324Z,95717.41
2024-01-28T11:11:28.596Z,95727.97
2024-01-28T11:13:56.600Z,95718.22
2024-01-28T11:16:23.428Z,95712.50
2024-01-28T11:19:12.131Z,95709.75
2024-01-28T11:21:43.087Z,95698.22
2024-01-28T11:24:10.432Z,95696.13
2024-01-28T11:26:42.520Z,95702.00
2024-01-28T11:29:11.772Z,95702.78
2024-01-28T11:31:40.216Z,95705.00
2024-01-28T11:34:13.118Z,95701.69
2024-01-28T11:36:46.766Z,95703.19
2024-01-28T11:39:15.341Z,95687.28
2024-01-28T11:41:46.376Z,95690.72
2024-01-28T11:44:13.966Z,95687.00
2024-01-28T11:46:41.057Z,95692.84
2024-01-28T11:49:09.224Z,95681.69
2024-01-28T11:51:36.393Z,95682.75
2024-01-28T11:54:05.141Z,95681.72
2024-01-28T11:56:33.154Z,95673.28
2024-01-28T11:59:00.763Z,95673.34
2024-01-28T12:01:28.293Z,95671.50
2024-01-28T12:03:55.901Z,95680.03
2024-01-28T12:06:24.296Z,95676.00
2024-01-28T12:08:52.231Z,95665.09
2024-01-28T12:11:21.685Z,95668.28
2024-01-28T12:13:50.094Z,95663.50
2024-01-28T12:16:22.512Z,95656.84
2024-01-28T12:18:50.527Z,95650.44
2024-01-28T12:21:28.862Z,95641.94
2024-01-28T12:24:04.038Z,95643.00
2024-01-28T12:26:33.506Z,95643.78
2024-01-28T12:29:01.384Z,95641.38
2024-01-28T12:31:29.307Z,95641.94
2024-01-28T12:33:56.299Z,95632.34
2024-01-28T12:36:23.677Z,95632.84
2024-01-28T12:38:50.532Z,95634.13
2024-01-28T12:41:17.321Z,95626.44
2024-01-28T12:43:51.858Z,95620.31
2024-01-28T12:46:20.280Z,95615.00
2024-01-28T12:48:47.233Z,95618.47
2024-01-28T12:51:14.303Z,95633.66
2024-01-28T12:53:41.267Z,95613.16
2024-01-28T12:56:08.084Z,95615.00
2024-01-28T12:58:34.861Z,95613.69
2024-01-28T13:01:02.648Z,95599.78
2024-01-28T13:03:29.655Z,95605.13
2024-01-28T13:05:56.459Z,95593.97
2024-01-28T13:08:23.277Z,95601.44
2024-01-28T13:10:50.073Z,95592.38
2024-01-28T13:13:16.843Z,95597.16
2024-01-28T13:15:43.685Z,95599.31
2024-01-28T13:18:24.998Z,95589.66
2024-01-28T13:20:56.976Z,95587.47
2024-01-28T13:23:23.719Z,95587.66
2024-01-28T13:25:50.414Z,95571.44
2024-01-28T13:28:17.789Z,95582.63
2024-01-28T13:30:44.499Z,95575.16
2024-01-28T13:33:11.397Z,95570.63
2024-01-28T13:35:38.249Z,95578.59
2024-01-28T13:38:05.097Z,95576.78
2024-01-28T13:40:31.878Z,95578.09
2024-01-28T13:42:58.649Z,95564.53
2024-01-28T13:45:25.453Z,95582.94
2024-01-28T13:47:52.340Z,95569.13
2024-01-28T13:50:19.133Z,95564.06
2024-01-28T13:52:45.855Z,95565.66
2024-01-28T13:55:12.633Z,95567.53
2024-01-28T13:57:39.931Z,95573.59
2024-01-28T14:00:11.096Z,95580.84
2024-01-28T14:02:40.208Z,95577.19
2024-01-28T14:05:08.655Z,95575.31
2024-01-28T14:07:36.204Z,95577.97
2024-01-28T14:10:04.119Z,95571.00
2024-01-28T14:12:30.918Z,95568.06
2024-01-28T14:14:57.673Z,95568.28
2024-01-28T14:17:24.927Z,95573.13
2024-01-28T14:19:51.716Z,95567.53
2024-01-28T14:22:18.926Z,95565.41
2024-01-28T14:24:47.246Z,95575.88
2024-01-28T14:27:14.633Z,95579.38
2024-01-28T14:29:41.551Z,95565.78
2024-01-28T14:32:08.347Z,95569.25
2024-01-28T14:34:35.317Z,95569.50
2024-01-28T14:37:03.819Z,95558.84
2024-01-28T14:39:32.198Z,95566.31
2024-01-28T14:42:03.609Z,95566.84
2024-01-28T14:44:30.474Z,95566.31
2024-01-28T14:47:00.935Z,95570.06
2024-01-28T14:49:28.332Z,95563.66
2024-01-28T14:51:55.377Z,95570.00
2024-01-28T14:54:22.153Z,95575.84
2024-01-28T14:56:49.045Z,95580.06
2024-01-28T14:59:15.761Z,95584.31
2024-01-28T15:01:42.577Z,95577.66
2024-01-28T15:04:09.427Z,95579.22
2024-01-28T15:06:36.408Z,95581.09
2024-01-28T15:09:05.994Z,95579.22
2024-01-28T15:11:35.929Z,95580.00
2024-01-28T15:14:03.239Z,95585.28
2024-01-28T15:16:30.304Z,95592.47
2024-01-28T15:18:57.570Z,95584.75
2024-01-28T15:21:27.311Z,95579.38
2024-01-28T15:23:54.385Z,95580.66
2024-01-28T15:26:23.989Z,95556.38
2024-01-28T15:29:03.184Z,95577.66
2024-01-28T15:31:34.145Z,95564.63
2024-01-28T15:34:03.079Z,95586.31
2024-01-28T15:36:32.660Z,95568.94
2024-01-28T15:39:10.023Z,95588.06
2024-01-28T15:41:36.980Z,95583.19
2024-01-28T15:44:04.216Z,95598.06
2024-01-28T15:46:31.660Z,95593.47
2024-01-28T15:48:58.829Z,95591.00
2024-01-28T15:51:25.619Z,95577.94
2024-01-28T15:53:53.259Z,95582.44
2024-01-28T15:56:21.666Z,95577.34
2024-01-28T15:58:49.229Z,95584.50
2024-01-28T16:01:16.310Z,95583.44
2024-01-28T16:03:43.264Z,95598.81
2024-01-28T16:06:10.762Z,95593.47
2024-01-28T16:08:37.685Z,95586.03
2024-01-28T16:11:04.566Z,95588.66
2024-01-28T16:13:31.937Z,95584.66
2024-01-28T16:15:59.852Z,95581.47
2024-01-28T16:18:35.607Z,95590.16
2024-01-28T16:21:02.478Z,95582.97
2024-01-28T16:23:29.240Z,95580.56
2024-01-28T16:25:58.096Z,95586.38
2024-01-28T16:28:24.978Z,95577.28
2024-01-28T16:30:51.759Z,95588.63
2024-01-28T16:33:18.785Z,95594.56
2024-01-28T16:35:45.845Z,95593.59
2024-01-28T16:38:12.884Z,95591.06
2024-01-28T16:40:39.776Z,95593.41
2024-01-28T16:43:06.815Z,95584.91
2024-01-28T16:45:33.686Z,95579.34
2024-01-28T16:48:00.654Z,95584.72
2024-01-28T16:50:27.766Z,95592.72
2024-01-28T16:52:54.600Z,95588.97
2024-01-28T16:55:21.344Z,95581.03
2024-01-28T16:57:49.374Z,95592.41
2024-01-28T17:00:16.741Z,95598.34
2024-01-28T17:02:43.694Z,95599.94
2024-01-28T17:05:10.705Z,95598.00
2024-01-28T17:07:37.599Z,95598.66
2024-01-28T17:10:04.721Z,95596.84
2024-01-28T17:12:31.570Z,95597.25
2024-01-28T17:14:58.330Z,95581.88
2024-01-28T17:17:25.595Z,95593.19
2024-01-28T17:19:53.032Z,95594.88
2024-01-28T17:22:20.271Z,95595.56
2024-01-28T17:24:47.306Z,95592.22
2024-01-28T17:27:14.392Z,95586.84
2024-01-28T17:29:41.197Z,95592.59
2024-01-28T17:32:08.705Z,95580.84
2024-01-28T17:34:35.695Z,95581.22
2024-01-28T17:37:02.628Z,95599.25
2024-01-28T17:39:29.770Z,95592.03
2024-01-28T17:41:56.548Z,95595.97
2024-01-28T17:44:24.122Z,95582.69
2024-01-28T17:46:51.121Z,95584.28
2024-01-28T17:49:18.003Z,95590.38
2024-01-28T17:51:44.861Z,95591.19
2024-01-28T17:54:11.852Z,95586.59
2024-01-28T17:56:39.524Z,95589.47
2024-01-28T17:59:06.688Z,95587.78
2024-01-28T18:01:33.796Z,95576.06
2024-01-28T18:04:01.226Z,95580.31
2024-01-28T18:06:28.297Z,95580.66
2024-01-28T18:08:55.122Z,95570.56
2024-01-28T18:11:21.892Z,95578.16
2024-01-28T18:13:48.712Z,95581.81
2024-01-28T18:16:15.860Z,95566.28
2024-01-28T18:18:43.321Z,95571.09
2024-01-28T18:21:10.315Z,95566.75
2024-01-28T18:23:40.833Z,95589.16
2024-01-28T18:26:08.408Z,95585.19
2024-01-28T18:28:35.187Z,95588.06
2024-01-28T18:31:02.207Z,95592.50
2024-01-28T18:33:34.805Z,95588.19
2024-01-28T18:36:02.315Z,95588.31
2024-01-28T18:38:29.289Z,95590.03
2024-01-28T18:40:57.044Z,95589.16
2024-01-28T18:43:23.819Z,95591.47
2024-01-28T18:45:50.650Z,95584.56
2024-01-28T18:48:21.015Z,95581.38
2024-01-28T18:50:48.334Z,95582.78
2024-01-28T18:53:15.266Z,95595.34
2024-01-28T18:55:42.148Z,95575.56
2024-01-28T18:58:09.203Z,95575.16
2024-01-28T19:03:06.634Z,95563.41
2024-01-28T19:05:34.185Z,95573.97
2024-01-28T19:08:01.472Z,95577.56
2024-01-28T19:10:28.646Z,95576.75
2024-01-28T19:12:55.548Z,95583.97
2024-01-28T19:15:22.789Z,95577.88
2024-01-28T19:17:55.880Z,95576.03
2024-01-28T19:20:23.151Z,95588.78
2024-01-28T19:22:50.044Z,95585.31
2024-01-28T19:25:18.384Z,95582.66
2024-01-28T19:27:45.217Z,95583.59
2024-01-28T19:30:12.695Z,95586.84
2024-01-28T19:32:39.402Z,95584.91
2024-01-28T19:35:06.838Z,95579.00
2024-01-28T19:37:33.934Z,95589.59
2024-01-28T19:40:00.737Z,95587.19
2024-01-28T19:42:27.827Z,95578.78
2024-01-28T19:44:54.756Z,95576.94
2024-01-28T19:47:21.550Z,95574.75
2024-01-28T19:49:48.478Z,95578.81
2024-01-28T19:52:17.221Z,95573.53
2024-01-28T19:54:45.075Z,95578.94
2024-01-28T19:57:11.898Z,95581.75
2024-01-28T19:59:38.602Z,95578.94
2024-01-28T20:02:05.341Z,95572.84
2024-01-28T20:04:32.061Z,95567.38
2024-01-28T20:06:59.359Z,95555.16
2024-01-28T20:09:26.292Z,95561.00
2024-01-28T20:11:53.104Z,95566.72
2024-01-28T20:14:19.881Z,95560.75
2024-01-28T20:16:46.732Z,95566.88
2024-01-28T20:19:18.970Z,95569.47
2024-01-28T20:21:45.830Z,95558.03
2024-01-28T20:24:12.549Z,95566.66
2024-01-28T20:26:39.325Z,95562.56
2024-01-28T20:29:06.093Z,95557.97
2024-01-28T20:31:33.171Z,95555.94
2024-01-28T20:34:01.334Z,95546.09
2024-01-28T20:36:28.328Z,95556.53
2024-01-28T20:38:55.053Z,95557.47
2024-01-28T20:41:21.880Z,95551.75
2024-01-28T20:43:48.707Z,95548.66
2024-01-28T20:46:15.444Z,95526.66
2024-01-28T20:48:46.302Z,95541.78
2024-01-28T20:51:13.094Z,95556.34
2024-01-28T20:53:39.829Z,95543.50
2024-01-28T20:56:09.464Z,95531.81
2024-01-28T20:58:36.286Z,95539.25
2024-01-28T21:01:04.018Z,95536.63
2024-01-28T21:03:31.010Z,95546.47
2024-01-28T21:05:57.812Z,95543.84
2024-01-28T21:08:24.537Z,95549.53
2024-01-28T21:10:51.244Z,95545.97
2024-01-28T21:13:17.912Z,95538.66
2024-01-28T21:15:45.187Z,95544.66
2024-01-28T21:18:12.073Z,95536.50
2024-01-28T21:20:40.713Z,95543.44
2024-01-28T21:23:07.925Z,95544.19
2024-01-28T21:25:35.374Z,95538.41
2024-01-28T21:28:02.632Z,95540.63
2024-01-28T21:30:29.532Z,95523.34
2024-01-28T21:32:57.065Z,95550.28
2024-01-28T21:35:23.816Z,95550.50
2024-01-28T21:37:50.512Z,95547.50
2024-01-28T21:40:17.956Z,95546.38
2024-01-28T21:42:45.250Z,95535.25
2024-01-28T21:45:12.585Z,95525.84
2024-01-28T21:47:39.475Z,95545.69
2024-01-28T21:50:07.079Z,95527.38
2024-01-28T21:52:33.811Z,95547.44
2024-01-28T21:55:00.980Z,95536.44
2024-01-28T21:57:27.742Z,95544.53
2024-01-28T21:59:54.597Z,95529.22
2024-01-28T22:02:21.367Z,95524.34
2024-01-28T22:04:48.245Z,95534.91
2024-01-28T22:07:15.808Z,95523.75
2024-01-28T22:09:44.381Z,95528.69
2024-01-28T22:12:14.040Z,95537.97
2024-01-28T22:14:40.872Z,95526.03
2024-01-28T22:17:07.705Z,95522.44
2024-01-28T22:19:34.537Z,95526.53
2024-01-28T22:22:01.613Z,95533.75
2024-01-28T22:24:28.402Z,95541.22
2024-01-28T22:26:55.948Z,95525.94
2024-01-28T22:29:22.886Z,95526.97
2024-01-28T22:31:49.861Z,95523.44
2024-01-28T22:34:16.698Z,95535.38
2024-01-28T22:36:43.869Z,95524.72
2024-01-28T22:39:12.262Z,95527.59
2024-01-28T22:41:40.636Z,95521.84
2024-01-28T22:44:07.583Z,95514.22
2024-01-28T22:46:34.299Z,95527.34
2024-01-28T22:49:01.147Z,95530.00
2024-01-28T22:51:27.985Z,95509.53
2024-01-28T22:53:54.682Z,95514.94
2024-01-28T22:56:21.491Z,95524.06
2024-01-28T22:58:48.196Z,95513.28
2024-01-28T23:01:14.969Z,95517.19
2024-01-28T23:03:42.041Z,95514.72
2024-01-28T23:06:15.620Z,95518.16
2024-01-28T23:08:42.518Z,95524.13
2024-01-28T23:11:09.224Z,95515.41
2024-01-28T23:13:39.776Z,95516.59
2024-01-28T23:16:07.673Z,95505.59
2024-01-28T23:18:35.390Z,95520.50
2024-01-28T23:21:02.508Z,95522.22
2024-01-28T23:23:29.220Z,95529.53
2024-01-28T23:25:56.304Z,95521.75
2024-01-28T23:28:23.308Z,95520.50
2024-01-28T23:30:50.073Z,95519.81
2024-01-28T23:33:17.283Z,95516.38
2024-01-28T23:35:44.270Z,95511.47
2024-01-28T23:38:12.131Z,95513.28
2024-01-28T23:40:38.846Z,95504.47
2024-01-28T23:43:06.178Z,95492.78
2024-01-28T23:45:33.161Z,95508.78
2024-01-28T23:47:59.930Z,95507.41
2024-01-28T23:50:26.949Z,95505.94
2024-01-28T23:52:56.142Z,95491.03
2024-01-28T23:55:23.802Z,95483.50
2024-01-28T23:57:51.088Z,95509.38
